sensor_id;sensor_type;location;lat;lon;timestamp;temperature;humidity
20929;DHT22;21895;47.072;15.132;2024-01-27T00:00:20;9.70;80.10
20929;DHT22;21895;47.072;15.132;2024-01-27T00:02:47;9.60;79.50
20929;DHT22;21895;47.072;15.132;2024-01-27T00:05:13;9.50;79.50
20929;DHT22;21895;47.072;15.132;2024-01-27T00:07:40;9.60;76.40
20929;DHT22;21895;47.072;15.132;2024-01-27T00:10:07;9.50;76.20
20929;DHT22;21895;47.072;15.132;2024-01-27T00:12:34;9.50;77.20
20929;DHT22;21895;47.072;15.132;2024-01-27T00:15:01;9.40;75.90
20929;DHT22;21895;47.072;15.132;2024-01-27T00:17:27;9.60;76.20
20929;DHT22;21895;47.072;15.132;2024-01-27T00:19:54;9.60;76.70
20929;DHT22;21895;47.072;15.132;2024-01-27T00:22:21;9.30;75.80
20929;DHT22;21895;47.072;15.132;2024-01-27T00:24:47;9.10;78.90
20929;DHT22;21895;47.072;15.132;2024-01-27T00:27:14;8.50;82.60
20929;DHT22;21895;47.072;15.132;2024-01-27T00:29:41;8.10;83.20
20929;DHT22;21895;47.072;15.132;2024-01-27T00:32:07;7.80;83.20
20929;DHT22;21895;47.072;15.132;2024-01-27T00:34:34;7.50;84.80
20929;DHT22;21895;47.072;15.132;2024-01-27T00:37:01;7.50;84.90
20929;DHT22;21895;47.072;15.132;2024-01-27T00:39:27;7.80;81.80
20929;DHT22;21895;47.072;15.132;2024-01-27T00:41:54;8.00;79.20
20929;DHT22;21895;47.072;15.132;2024-01-27T00:44:21;8.30;78.00
20929;DHT22;21895;47.072;15.132;2024-01-27T00:46:48;8.50;76.40
20929;DHT22;21895;47.072;15.132;2024-01-27T00:49:15;8.60;76.80
20929;DHT22;21895;47.072;15.132;2024-01-27T00:51:42;8.60;76.80
20929;DHT22;21895;47.072;15.132;2024-01-27T00:54:08;8.50;77.40
20929;DHT22;21895;47.072;15.132;2024-01-27T00:56:35;8.50;76.80
20929;DHT22;21895;47.072;15.132;2024-01-27T00:59:01;8.50;76.20
20929;DHT22;21895;47.072;15.132;2024-01-27T01:01:28;8.50;74.40
20929;DHT22;21895;47.072;15.132;2024-01-27T01:03:55;8.70;75.60
20929;DHT22;21895;47.072;15.132;2024-01-27T01:06:22;8.60;76.20
20929;DHT22;21895;47.072;15.132;2024-01-27T01:08:49;8.50;76.30
20929;DHT22;21895;47.072;15.132;2024-01-27T01:11:16;8.40;75.90
20929;DHT22;21895;47.072;15.132;2024-01-27T01:13:42;8.20;77.40
20929;DHT22;21895;47.072;15.132;2024-01-27T01:16:09;8.20;76.10
20929;DHT22;21895;47.072;15.132;2024-01-27T01:18:36;8.40;75.10
20929;DHT22;21895;47.072;15.132;2024-01-27T01:21:02;8.40;74.30
20929;DHT22;21895;47.072;15.132;2024-01-27T01:23:29;8.50;73.20
20929;DHT22;21895;47.072;15.132;2024-01-27T01:25:56;8.60;72.50
20929;DHT22;21895;47.072;15.132;2024-01-27T01:28:23;8.40;74.50
20929;DHT22;21895;47.072;15.132;2024-01-27T01:30:49;8.30;75.00
20929;DHT22;21895;47.072;15.132;2024-01-27T01:33:16;8.20;76.00
20929;DHT22;21895;47.072;15.132;2024-01-27T01:35:43;8.00;75.50
20929;DHT22;21895;47.072;15.132;2024-01-27T01:38:10;7.90;74.90
20929;DHT22;21895;47.072;15.132;2024-01-27T01:40:36;7.80;74.50
20929;DHT22;21895;47.072;15.132;2024-01-27T01:43:03;7.80;73.60
20929;DHT22;21895;47.072;15.132;2024-01-27T01:45:38;7.90;74.40
20929;DHT22;21895;47.072;15.132;2024-01-27T01:48:05;7.80;78.00
20929;DHT22;21895;47.072;15.132;2024-01-27T01:50:33;7.60;78.30
20929;DHT22;21895;47.072;15.132;2024-01-27T01:53:00;7.30;76.30
20929;DHT22;21895;47.072;15.132;2024-01-27T01:55:27;7.40;76.50
20929;DHT22;21895;47.072;15.132;2024-01-27T01:57:54;7.30;76.60
20929;DHT22;21895;47.072;15.132;2024-01-27T02:00:20;7.30;78.00
20929;DHT22;21895;47.072;15.132;2024-01-27T02:02:48;7.00;78.60
20929;DHT22;21895;47.072;15.132;2024-01-27T02:05:15;6.80;78.00
20929;DHT22;21895;47.072;15.132;2024-01-27T02:07:41;6.40;85.00
20929;DHT22;21895;47.072;15.132;2024-01-27T02:10:15;6.10;84.60
20929;DHT22;21895;47.072;15.132;2024-01-27T02:12:46;5.70;84.60
20929;DHT22;21895;47.072;15.132;2024-01-27T02:15:13;5.70;82.60
20929;DHT22;21895;47.072;15.132;2024-01-27T02:17:40;5.50;84.60
20929;DHT22;21895;47.072;15.132;2024-01-27T02:20:08;5.50;82.90
20929;DHT22;21895;47.072;15.132;2024-01-27T02:22:35;5.50;86.40
20929;DHT22;21895;47.072;15.132;2024-01-27T02:25:03;5.10;88.30
20929;DHT22;21895;47.072;15.132;2024-01-27T02:27:32;4.60;88.70
20929;DHT22;21895;47.072;15.132;2024-01-27T02:29:59;4.40;88.20
20929;DHT22;21895;47.072;15.132;2024-01-27T02:32:26;4.30;87.90
20929;DHT22;21895;47.072;15.132;2024-01-27T02:34:55;4.20;90.30
20929;DHT22;21895;47.072;15.132;2024-01-27T02:37:22;4.10;90.90
20929;DHT22;21895;47.072;15.132;2024-01-27T02:39:48;4.00;90.60
20929;DHT22;21895;47.072;15.132;2024-01-27T02:42:15;3.90;90.10
20929;DHT22;21895;47.072;15.132;2024-01-27T02:44:41;4.10;89.20
20929;DHT22;21895;47.072;15.132;2024-01-27T02:47:08;4.70;82.10
20929;DHT22;21895;47.072;15.132;2024-01-27T02:49:34;4.90;83.80
20929;DHT22;21895;47.072;15.132;2024-01-27T02:52:01;5.00;85.50
20929;DHT22;21895;47.072;15.132;2024-01-27T02:54:28;5.00;83.00
20929;DHT22;21895;47.072;15.132;2024-01-27T02:56:55;5.20;82.40
20929;DHT22;21895;47.072;15.132;2024-01-27T02:59:21;6.40;73.90
20929;DHT22;21895;47.072;15.132;2024-01-27T03:01:48;6.80;76.40
20929;DHT22;21895;47.072;15.132;2024-01-27T03:04:14;7.20;73.00
20929;DHT22;21895;47.072;15.132;2024-01-27T03:06:41;7.40;73.80
20929;DHT22;21895;47.072;15.132;2024-01-27T03:09:08;7.10;74.70
20929;DHT22;21895;47.072;15.132;2024-01-27T03:11:36;7.10;73.70
20929;DHT22;21895;47.072;15.132;2024-01-27T03:14:03;7.20;72.70
20929;DHT22;21895;47.072;15.132;2024-01-27T03:16:30;7.30;72.30
20929;DHT22;21895;47.072;15.132;2024-01-27T03:18:56;7.60;70.80
20929;DHT22;21895;47.072;15.132;2024-01-27T03:21:23;7.80;70.90
20929;DHT22;21895;47.072;15.132;2024-01-27T03:23:49;8.00;69.70
20929;DHT22;21895;47.072;15.132;2024-01-27T03:26:16;8.10;70.70
20929;DHT22;21895;47.072;15.132;2024-01-27T03:28:43;8.20;69.90
20929;DHT22;21895;47.072;15.132;2024-01-27T03:31:09;8.30;69.10
20929;DHT22;21895;47.072;15.132;2024-01-27T03:33:36;8.40;69.10
20929;DHT22;21895;47.072;15.132;2024-01-27T03:36:03;8.60;68.60
20929;DHT22;21895;47.072;15.132;2024-01-27T03:38:36;8.50;68.50
20929;DHT22;21895;47.072;15.132;2024-01-27T03:41:03;8.40;70.60
20929;DHT22;21895;47.072;15.132;2024-01-27T03:43:30;8.30;69.80
20929;DHT22;21895;47.072;15.132;2024-01-27T03:45:57;8.50;69.30
20929;DHT22;21895;47.072;15.132;2024-01-27T03:48:24;8.40;70.00
20929;DHT22;21895;47.072;15.132;2024-01-27T03:50:52;8.10;72.20
20929;DHT22;21895;47.072;15.132;2024-01-27T03:53:21;7.90;71.50
20929;DHT22;21895;47.072;15.132;2024-01-27T03:55:48;7.80;72.40
20929;DHT22;21895;47.072;15.132;2024-01-27T03:58:14;7.80;71.80
20929;DHT22;21895;47.072;15.132;2024-01-27T04:00:41;7.90;71.40
20929;DHT22;21895;47.072;15.132;2024-01-27T04:03:12;7.90;71.30
20929;DHT22;21895;47.072;15.132;2024-01-27T04:05:38;8.10;70.50
20929;DHT22;21895;47.072;15.132;2024-01-27T04:08:05;8.40;70.00
20929;DHT22;21895;47.072;15.132;2024-01-27T04:10:32;8.50;69.30
20929;DHT22;21895;47.072;15.132;2024-01-27T04:12:59;8.60;69.40
20929;DHT22;21895;47.072;15.132;2024-01-27T04:15:28;8.30;71.30
20929;DHT22;21895;47.072;15.132;2024-01-27T04:17:55;8.10;71.80
20929;DHT22;21895;47.072;15.132;2024-01-27T04:20:22;8.10;72.40
20929;DHT22;21895;47.072;15.132;2024-01-27T04:22:48;8.00;71.40
20929;DHT22;21895;47.072;15.132;2024-01-27T04:25:15;8.20;71.00
20929;DHT22;21895;47.072;15.132;2024-01-27T04:27:42;8.40;70.40
20929;DHT22;21895;47.072;15.132;2024-01-27T04:30:11;8.50;70.20
20929;DHT22;21895;47.072;15.132;2024-01-27T04:32:38;8.50;70.20
20929;DHT22;21895;47.072;15.132;2024-01-27T04:35:09;8.40;70.30
20929;DHT22;21895;47.072;15.132;2024-01-27T04:37:37;8.50;70.70
20929;DHT22;21895;47.072;15.132;2024-01-27T04:40:07;8.50;70.90
20929;DHT22;21895;47.072;15.132;2024-01-27T04:42:34;8.30;71.90
20929;DHT22;21895;47.072;15.132;2024-01-27T04:45:01;8.00;72.60
20929;DHT22;21895;47.072;15.132;2024-01-27T04:47:28;8.10;71.70
20929;DHT22;21895;47.072;15.132;2024-01-27T04:49:54;8.20;70.90
20929;DHT22;21895;47.072;15.132;2024-01-27T04:52:21;8.40;70.40
20929;DHT22;21895;47.072;15.132;2024-01-27T04:54:48;8.40;69.80
20929;DHT22;21895;47.072;15.132;2024-01-27T04:57:14;8.40;71.70
20929;DHT22;21895;47.072;15.132;2024-01-27T04:59:42;8.10;72.20
20929;DHT22;21895;47.072;15.132;2024-01-27T05:02:08;8.10;71.80
20929;DHT22;21895;47.072;15.132;2024-01-27T05:04:37;8.00;72.30
20929;DHT22;21895;47.072;15.132;2024-01-27T05:07:04;7.80;73.70
20929;DHT22;21895;47.072;15.132;2024-01-27T05:09:31;7.40;75.10
20929;DHT22;21895;47.072;15.132;2024-01-27T05:12:00;7.20;75.80
20929;DHT22;21895;47.072;15.132;2024-01-27T05:14:27;6.90;75.50
20929;DHT22;21895;47.072;15.132;2024-01-27T05:16:53;6.90;76.40
20929;DHT22;21895;47.072;15.132;2024-01-27T05:19:21;7.10;74.30
20929;DHT22;21895;47.072;15.132;2024-01-27T05:21:48;7.30;73.90
20929;DHT22;21895;47.072;15.132;2024-01-27T05:24:14;7.30;74.60
20929;DHT22;21895;47.072;15.132;2024-01-27T05:26:41;7.30;75.60
20929;DHT22;21895;47.072;15.132;2024-01-27T05:29:07;7.30;75.40
20929;DHT22;21895;47.072;15.132;2024-01-27T05:31:34;7.30;74.70
20929;DHT22;21895;47.072;15.132;2024-01-27T05:34:01;7.30;73.80
20929;DHT22;21895;47.072;15.132;2024-01-27T05:36:27;7.60;72.60
20929;DHT22;21895;47.072;15.132;2024-01-27T05:38:54;7.80;74.00
20929;DHT22;21895;47.072;15.132;2024-01-27T05:41:25;7.70;74.00
20929;DHT22;21895;47.072;15.132;2024-01-27T05:43:54;7.80;72.50
20929;DHT22;21895;47.072;15.132;2024-01-27T05:46:24;8.10;71.50
20929;DHT22;21895;47.072;15.132;2024-01-27T05:48:51;8.20;71.20
20929;DHT22;21895;47.072;15.132;2024-01-27T05:51:20;8.30;70.30
20929;DHT22;21895;47.072;15.132;2024-01-27T05:53:49;8.30;70.70
20929;DHT22;21895;47.072;15.132;2024-01-27T05:56:16;8.30;70.40
20929;DHT22;21895;47.072;15.132;2024-01-27T05:58:46;8.30;71.20
20929;DHT22;21895;47.072;15.132;2024-01-27T06:01:13;8.20;71.80
20929;DHT22;21895;47.072;15.132;2024-01-27T06:03:43;8.20;70.80
20929;DHT22;21895;47.072;15.132;2024-01-27T06:06:10;8.20;70.40
20929;DHT22;21895;47.072;15.132;2024-01-27T06:08:37;8.30;71.20
20929;DHT22;21895;47.072;15.132;2024-01-27T06:11:04;8.40;70.10
20929;DHT22;21895;47.072;15.132;2024-01-27T06:13:35;8.30;70.30
20929;DHT22;21895;47.072;15.132;2024-01-27T06:16:07;8.20;71.40
20929;DHT22;21895;47.072;15.132;2024-01-27T06:18:37;8.30;69.10
20929;DHT22;21895;47.072;15.132;2024-01-27T06:21:05;8.50;69.10
20929;DHT22;21895;47.072;15.132;2024-01-27T06:23:32;8.60;69.20
20929;DHT22;21895;47.072;15.132;2024-01-27T06:26:03;8.50;70.10
20929;DHT22;21895;47.072;15.132;2024-01-27T06:28:31;8.40;70.50
20929;DHT22;21895;47.072;15.132;2024-01-27T06:30:57;8.40;70.30
20929;DHT22;21895;47.072;15.132;2024-01-27T06:33:24;8.50;70.00
20929;DHT22;21895;47.072;15.132;2024-01-27T06:35:51;8.50;70.30
20929;DHT22;21895;47.072;15.132;2024-01-27T06:38:17;8.50;70.20
20929;DHT22;21895;47.072;15.132;2024-01-27T06:40:44;8.50;70.20
20929;DHT22;21895;47.072;15.132;2024-01-27T06:43:14;8.30;71.50
20929;DHT22;21895;47.072;15.132;2024-01-27T06:45:40;8.10;74.60
20929;DHT22;21895;47.072;15.132;2024-01-27T06:48:07;7.80;71.90
20929;DHT22;21895;47.072;15.132;2024-01-27T06:50:34;8.10;69.90
20929;DHT22;21895;47.072;15.132;2024-01-27T06:53:01;8.10;72.70
20929;DHT22;21895;47.072;15.132;2024-01-27T06:55:27;7.70;77.30
20929;DHT22;21895;47.072;15.132;2024-01-27T06:57:54;7.30;76.20
20929;DHT22;21895;47.072;15.132;2024-01-27T07:00:21;7.00;77.30
20929;DHT22;21895;47.072;15.132;2024-01-27T07:02:48;6.90;76.70
20929;DHT22;21895;47.072;15.132;2024-01-27T07:05:14;6.80;77.30
20929;DHT22;21895;47.072;15.132;2024-01-27T07:07:42;6.70;77.00
20929;DHT22;21895;47.072;15.132;2024-01-27T07:10:09;6.70;77.70
20929;DHT22;21895;47.072;15.132;2024-01-27T07:12:35;6.70;76.80
20929;DHT22;21895;47.072;15.132;2024-01-27T07:15:02;6.80;77.00
20929;DHT22;21895;47.072;15.132;2024-01-27T07:17:29;7.10;75.90
20929;DHT22;21895;47.072;15.132;2024-01-27T07:19:56;7.30;74.90
20929;DHT22;21895;47.072;15.132;2024-01-27T07:22:23;7.40;74.80
20929;DHT22;21895;47.072;15.132;2024-01-27T07:24:50;7.70;74.50
20929;DHT22;21895;47.072;15.132;2024-01-27T07:27:17;7.90;74.40
20929;DHT22;21895;47.072;15.132;2024-01-27T07:29:45;8.00;75.10
20929;DHT22;21895;47.072;15.132;2024-01-27T07:32:11;8.00;75.00
20929;DHT22;21895;47.072;15.132;2024-01-27T07:34:45;8.20;74.10
20929;DHT22;21895;47.072;15.132;2024-01-27T07:37:12;8.40;73.20
20929;DHT22;21895;47.072;15.132;2024-01-27T07:39:38;8.50;73.20
20929;DHT22;21895;47.072;15.132;2024-01-27T07:42:05;8.60;71.40
20929;DHT22;21895;47.072;15.132;2024-01-27T07:44:32;8.70;72.30
20929;DHT22;21895;47.072;15.132;2024-01-27T07:46:59;8.80;72.00
20929;DHT22;21895;47.072;15.132;2024-01-27T07:49:26;8.70;72.50
20929;DHT22;21895;47.072;15.132;2024-01-27T07:51:52;8.70;71.30
20929;DHT22;21895;47.072;15.132;2024-01-27T07:54:19;8.80;71.70
20929;DHT22;21895;47.072;15.132;2024-01-27T07:56:46;8.90;71.20
20929;DHT22;21895;47.072;15.132;2024-01-27T07:59:13;9.00;70.80
20929;DHT22;21895;47.072;15.132;2024-01-27T08:01:43;9.00;70.60
20929;DHT22;21895;47.072;15.132;2024-01-27T08:04:10;9.00;71.10
20929;DHT22;21895;47.072;15.132;2024-01-27T08:06:50;9.00;69.60
20929;DHT22;21895;47.072;15.132;2024-01-27T08:09:17;8.90;70.00
20929;DHT22;21895;47.072;15.132;2024-01-27T08:11:44;9.00;70.00
20929;DHT22;21895;47.072;15.132;2024-01-27T08:14:11;9.00;69.20
20929;DHT22;21895;47.072;15.132;2024-01-27T08:16:38;9.10;69.10
20929;DHT22;21895;47.072;15.132;2024-01-27T08:19:04;9.10;70.00
20929;DHT22;21895;47.072;15.132;2024-01-27T08:21:31;9.10;70.70
20929;DHT22;21895;47.072;15.132;2024-01-27T08:23:58;9.10;69.70
20929;DHT22;21895;47.072;15.132;2024-01-27T08:26:24;9.20;69.30
20929;DHT22;21895;47.072;15.132;2024-01-27T08:28:51;9.20;69.90
20929;DHT22;21895;47.072;15.132;2024-01-27T08:31:20;9.30;68.60
20929;DHT22;21895;47.072;15.132;2024-01-27T08:33:47;9.30;68.00
20929;DHT22;21895;47.072;15.132;2024-01-27T08:36:14;9.50;67.70
20929;DHT22;21895;47.072;15.132;2024-01-27T08:38:41;9.50;68.30
20929;DHT22;21895;47.072;15.132;2024-01-27T08:41:07;9.40;68.30
20929;DHT22;21895;47.072;15.132;2024-01-27T08:43:34;9.30;67.70
20929;DHT22;21895;47.072;15.132;2024-01-27T08:46:01;9.40;67.60
20929;DHT22;21895;47.072;15.132;2024-01-27T08:48:27;9.40;67.80
20929;DHT22;21895;47.072;15.132;2024-01-27T08:50:54;9.50;67.40
20929;DHT22;21895;47.072;15.132;2024-01-27T08:53:21;9.60;68.60
20929;DHT22;21895;47.072;15.132;2024-01-27T08:55:47;9.70;68.50
20929;DHT22;21895;47.072;15.132;2024-01-27T08:58:14;9.70;68.50
20929;DHT22;21895;47.072;15.132;2024-01-27T09:00:41;9.70;68.10
20929;DHT22;21895;47.072;15.132;2024-01-27T09:03:07;9.70;65.50
20929;DHT22;21895;47.072;15.132;2024-01-27T09:05:34;9.80;65.30
20929;DHT22;21895;47.072;15.132;2024-01-27T09:08:01;9.80;65.00
20929;DHT22;21895;47.072;15.132;2024-01-27T09:10:27;9.90;64.20
20929;DHT22;21895;47.072;15.132;2024-01-27T09:12:54;9.90;62.60
20929;DHT22;21895;47.072;15.132;2024-01-27T09:15:21;9.90;62.00
20929;DHT22;21895;47.072;15.132;2024-01-27T09:17:48;9.90;62.50
20929;DHT22;21895;47.072;15.132;2024-01-27T09:20:14;10.00;61.00
20929;DHT22;21895;47.072;15.132;2024-01-27T09:22:41;10.00;61.50
20929;DHT22;21895;47.072;15.132;2024-01-27T09:25:08;10.10;62.10
20929;DHT22;21895;47.072;15.132;2024-01-27T09:27:35;10.20;61.00
20929;DHT22;21895;47.072;15.132;2024-01-27T09:30:03;9.90;60.50
20929;DHT22;21895;47.072;15.132;2024-01-27T09:32:31;9.70;61.40
20929;DHT22;21895;47.072;15.132;2024-01-27T09:34:57;9.70;61.90
20929;DHT22;21895;47.072;15.132;2024-01-27T09:37:24;9.60;61.70
20929;DHT22;21895;47.072;15.132;2024-01-27T09:39:55;9.60;61.00
20929;DHT22;21895;47.072;15.132;2024-01-27T09:42:22;9.60;60.50
20929;DHT22;21895;47.072;15.132;2024-01-27T09:44:49;9.60;60.60
20929;DHT22;21895;47.072;15.132;2024-01-27T09:47:17;9.70;61.10
20929;DHT22;21895;47.072;15.132;2024-01-27T09:49:46;9.70;59.80
20929;DHT22;21895;47.072;15.132;2024-01-27T09:52:14;9.70;58.80
20929;DHT22;21895;47.072;15.132;2024-01-27T09:54:41;9.70;58.10
20929;DHT22;21895;47.072;15.132;2024-01-27T09:57:09;9.70;58.60
20929;DHT22;21895;47.072;15.132;2024-01-27T09:59:40;9.70;58.50
20929;DHT22;21895;47.072;15.132;2024-01-27T10:02:11;9.80;59.10
20929;DHT22;21895;47.072;15.132;2024-01-27T10:04:44;9.90;57.00
20929;DHT22;21895;47.072;15.132;2024-01-27T10:07:14;9.90;57.20
20929;DHT22;21895;47.072;15.132;2024-01-27T10:09:41;10.00;57.70
20929;DHT22;21895;47.072;15.132;2024-01-27T10:12:10;10.00;57.60
20929;DHT22;21895;47.072;15.132;2024-01-27T10:14:40;10.00;57.60
20929;DHT22;21895;47.072;15.132;2024-01-27T10:17:11;10.20;56.50
20929;DHT22;21895;47.072;15.132;2024-01-27T10:19:38;10.10;56.70
20929;DHT22;21895;47.072;15.132;2024-01-27T10:22:10;10.30;58.10
20929;DHT22;21895;47.072;15.132;2024-01-27T10:24:37;10.30;57.20
20929;DHT22;21895;47.072;15.132;2024-01-27T10:27:04;10.30;56.50
20929;DHT22;21895;47.072;15.132;2024-01-27T10:29:32;10.40;56.40
20929;DHT22;21895;47.072;15.132;2024-01-27T10:32:11;10.50;56.70
20929;DHT22;21895;47.072;15.132;2024-01-27T10:34:38;10.50;57.10
20929;DHT22;21895;47.072;15.132;2024-01-27T10:37:05;10.50;55.40
20929;DHT22;21895;47.072;15.132;2024-01-27T10:39:31;10.50;55.40
20929;DHT22;21895;47.072;15.132;2024-01-27T10:41:59;10.50;55.80
20929;DHT22;21895;47.072;15.132;2024-01-27T10:44:29;10.60;56.70
20929;DHT22;21895;47.072;15.132;2024-01-27T10:46:57;10.60;54.90
20929;DHT22;21895;47.072;15.132;2024-01-27T10:49:28;10.50;55.70
20929;DHT22;21895;47.072;15.132;2024-01-27T10:52:02;10.60;54.90
20929;DHT22;21895;47.072;15.132;2024-01-27T10:54:37;10.70;55.60
20929;DHT22;21895;47.072;15.132;2024-01-27T10:57:08;10.80;55.70
20929;DHT22;21895;47.072;15.132;2024-01-27T10:59:38;10.70;55.50
20929;DHT22;21895;47.072;15.132;2024-01-27T11:02:11;10.60;54.40
20929;DHT22;21895;47.072;15.132;2024-01-27T11:04:41;10.40;55.00
20929;DHT22;21895;47.072;15.132;2024-01-27T11:07:09;10.40;54.60
20929;DHT22;21895;47.072;15.132;2024-01-27T11:09:36;10.50;54.30
20929;DHT22;21895;47.072;15.132;2024-01-27T11:12:05;10.60;54.80
20929;DHT22;21895;47.072;15.132;2024-01-27T11:14:34;10.70;54.60
20929;DHT22;21895;47.072;15.132;2024-01-27T11:17:01;10.70;53.70
20929;DHT22;21895;47.072;15.132;2024-01-27T11:19:28;10.60;53.70
20929;DHT22;21895;47.072;15.132;2024-01-27T11:22:03;10.40;53.40
20929;DHT22;21895;47.072;15.132;2024-01-27T11:24:30;10.30;53.90
20929;DHT22;21895;47.072;15.132;2024-01-27T11:27:01;10.40;53.30
20929;DHT22;21895;47.072;15.132;2024-01-27T11:29:32;10.40;53.30
20929;DHT22;21895;47.072;15.132;2024-01-27T11:32:01;10.50;54.00
20929;DHT22;21895;47.072;15.132;2024-01-27T11:34:40;10.50;54.10
20929;DHT22;21895;47.072;15.132;2024-01-27T11:37:15;10.50;54.50
20929;DHT22;21895;47.072;15.132;2024-01-27T11:39:43;10.60;54.60
20929;DHT22;21895;47.072;15.132;2024-01-27T11:42:11;10.60;53.90
20929;DHT22;21895;47.072;15.132;2024-01-27T11:44:40;10.60;53.90
20929;DHT22;21895;47.072;15.132;2024-01-27T11:47:18;10.80;53.60
20929;DHT22;21895;47.072;15.132;2024-01-27T11:49:52;10.90;52.90
20929;DHT22;21895;47.072;15.132;2024-01-27T11:52:21;10.90;53.00
20929;DHT22;21895;47.072;15.132;2024-01-27T11:54:57;11.00;53.30
20929;DHT22;21895;47.072;15.132;2024-01-27T11:57:25;11.00;52.00
20929;DHT22;21895;47.072;15.132;2024-01-27T11:59:54;10.80;52.40
20929;DHT22;21895;47.072;15.132;2024-01-27T12:02:21;10.70;53.60
20929;DHT22;21895;47.072;15.132;2024-01-27T12:04:49;10.80;52.50
20929;DHT22;21895;47.072;15.132;2024-01-27T12:07:16;10.80;52.40
20929;DHT22;21895;47.072;15.132;2024-01-27T12:09:49;10.70;52.50
20929;DHT22;21895;47.072;15.132;2024-01-27T12:12:16;10.70;53.00
20929;DHT22;21895;47.072;15.132;2024-01-27T12:14:47;10.90;53.00
20929;DHT22;21895;47.072;15.132;2024-01-27T12:17:14;10.90;51.70
20929;DHT22;21895;47.072;15.132;2024-01-27T12:19:48;11.00;52.90
20929;DHT22;21895;47.072;15.132;2024-01-27T12:22:49;11.10;52.40
20929;DHT22;21895;47.072;15.132;2024-01-27T12:25:21;11.00;52.00
20929;DHT22;21895;47.072;15.132;2024-01-27T12:27:48;11.00;52.90
20929;DHT22;21895;47.072;15.132;2024-01-27T12:30:14;11.00;52.90
20929;DHT22;21895;47.072;15.132;2024-01-27T12:32:41;10.90;52.50
20929;DHT22;21895;47.072;15.132;2024-01-27T12:35:08;10.90;52.90
20929;DHT22;21895;47.072;15.132;2024-01-27T12:37:36;10.90;51.70
20929;DHT22;21895;47.072;15.132;2024-01-27T12:40:19;10.90;52.10
20929;DHT22;21895;47.072;15.132;2024-01-27T12:42:50;10.70;51.60
20929;DHT22;21895;47.072;15.132;2024-01-27T12:45:17;10.70;51.80
20929;DHT22;21895;47.072;15.132;2024-01-27T12:47:44;10.70;52.20
20929;DHT22;21895;47.072;15.132;2024-01-27T12:50:11;10.70;51.60
20929;DHT22;21895;47.072;15.132;2024-01-27T12:52:39;10.80;52.00
20929;DHT22;21895;47.072;15.132;2024-01-27T12:55:06;10.90;51.50
20929;DHT22;21895;47.072;15.132;2024-01-27T12:57:33;10.90;52.00
20929;DHT22;21895;47.072;15.132;2024-01-27T12:59:59;10.80;52.30
20929;DHT22;21895;47.072;15.132;2024-01-27T13:02:26;10.80;51.80
20929;DHT22;21895;47.072;15.132;2024-01-27T13:04:53;10.80;51.60
20929;DHT22;21895;47.072;15.132;2024-01-27T13:07:19;10.80;51.20
20929;DHT22;21895;47.072;15.132;2024-01-27T13:09:46;10.80;50.90
20929;DHT22;21895;47.072;15.132;2024-01-27T13:12:12;10.70;51.60
20929;DHT22;21895;47.072;15.132;2024-01-27T13:14:39;10.60;52.00
20929;DHT22;21895;47.072;15.132;2024-01-27T13:17:06;10.60;51.70
20929;DHT22;21895;47.072;15.132;2024-01-27T13:19:33;10.70;52.40
20929;DHT22;21895;47.072;15.132;2024-01-27T13:22:00;10.70;52.20
20929;DHT22;21895;47.072;15.132;2024-01-27T13:24:27;10.70;51.70
20929;DHT22;21895;47.072;15.132;2024-01-27T13:26:54;10.60;51.70
20929;DHT22;21895;47.072;15.132;2024-01-27T13:29:21;10.60;52.10
20929;DHT22;21895;47.072;15.132;2024-01-27T13:31:49;10.70;51.80
20929;DHT22;21895;47.072;15.132;2024-01-27T13:34:15;10.70;51.80
20929;DHT22;21895;47.072;15.132;2024-01-27T13:36:42;10.60;50.90
20929;DHT22;21895;47.072;15.132;2024-01-27T13:39:09;10.50;51.30
20929;DHT22;21895;47.072;15.132;2024-01-27T13:41:36;10.60;51.10
20929;DHT22;21895;47.072;15.132;2024-01-27T13:44:03;10.60;51.40
20929;DHT22;21895;47.072;15.132;2024-01-27T13:46:31;10.60;51.70
20929;DHT22;21895;47.072;15.132;2024-01-27T13:48:58;10.50;51.00
20929;DHT22;21895;47.072;15.132;2024-01-27T13:51:29;10.60;51.50
20929;DHT22;21895;47.072;15.132;2024-01-27T13:53:56;10.50;51.10
20929;DHT22;21895;47.072;15.132;2024-01-27T13:56:22;10.50;51.10
20929;DHT22;21895;47.072;15.132;2024-01-27T13:58:49;10.50;50.90
20929;DHT22;21895;47.072;15.132;2024-01-27T14:01:17;10.50;50.30
20929;DHT22;21895;47.072;15.132;2024-01-27T14:03:44;10.50;50.70
20929;DHT22;21895;47.072;15.132;2024-01-27T14:06:11;10.50;50.80
20929;DHT22;21895;47.072;15.132;2024-01-27T14:08:39;10.60;51.50
20929;DHT22;21895;47.072;15.132;2024-01-27T14:11:06;10.60;51.00
20929;DHT22;21895;47.072;15.132;2024-01-27T14:13:33;10.60;50.90
20929;DHT22;21895;47.072;15.132;2024-01-27T14:15:59;10.50;50.80
20929;DHT22;21895;47.072;15.132;2024-01-27T14:18:26;10.60;50.70
20929;DHT22;21895;47.072;15.132;2024-01-27T14:20:53;10.60;50.30
20929;DHT22;21895;47.072;15.132;2024-01-27T14:23:19;10.50;51.00
20929;DHT22;21895;47.072;15.132;2024-01-27T14:25:46;10.50;51.10
20929;DHT22;21895;47.072;15.132;2024-01-27T14:28:14;10.50;51.40
20929;DHT22;21895;47.072;15.132;2024-01-27T14:30:41;10.50;51.20
20929;DHT22;21895;47.072;15.132;2024-01-27T14:33:11;10.60;51.70
20929;DHT22;21895;47.072;15.132;2024-01-27T14:35:38;10.60;51.60
20929;DHT22;21895;47.072;15.132;2024-01-27T14:38:05;10.60;51.90
20929;DHT22;21895;47.072;15.132;2024-01-27T14:40:34;10.50;51.30
20929;DHT22;21895;47.072;15.132;2024-01-27T14:43:02;10.50;51.40
20929;DHT22;21895;47.072;15.132;2024-01-27T14:45:34;10.50;51.70
20929;DHT22;21895;47.072;15.132;2024-01-27T14:48:01;10.40;51.90
20929;DHT22;21895;47.072;15.132;2024-01-27T14:50:30;10.40;52.40
20929;DHT22;21895;47.072;15.132;2024-01-27T14:52:57;10.40;51.60
20929;DHT22;21895;47.072;15.132;2024-01-27T14:55:24;10.40;50.80
20929;DHT22;21895;47.072;15.132;2024-01-27T14:57:52;10.40;51.10
20929;DHT22;21895;47.072;15.132;2024-01-27T15:00:19;10.30;51.10
20929;DHT22;21895;47.072;15.132;2024-01-27T15:02:45;10.30;51.30
20929;DHT22;21895;47.072;15.132;2024-01-27T15:05:12;10.30;52.10
20929;DHT22;21895;47.072;15.132;2024-01-27T15:07:39;10.20;51.10
20929;DHT22;21895;47.072;15.132;2024-01-27T15:10:09;10.30;51.50
20929;DHT22;21895;47.072;15.132;2024-01-27T15:12:37;10.20;51.20
20929;DHT22;21895;47.072;15.132;2024-01-27T15:15:05;10.10;51.30
20929;DHT22;21895;47.072;15.132;2024-01-27T15:17:32;10.00;51.90
20929;DHT22;21895;47.072;15.132;2024-01-27T15:19:59;10.00;51.10
20929;DHT22;21895;47.072;15.132;2024-01-27T15:22:26;10.10;51.20
20929;DHT22;21895;47.072;15.132;2024-01-27T15:24:52;10.00;51.50
20929;DHT22;21895;47.072;15.132;2024-01-27T15:27:20;10.00;51.80